Helsinki Malmi, Finland

12:07 PM EET on November 26, 2014 (GMT +0200)
Malmi | Change Station
CLOSE
Current Station
Airport
Location: Helsinki Malmi,
Elevation: 92 ft
Nearby Weather Stations

Elev 92 ft 60.25 °N, 25.04 °E | Updated 17 minutes ago

Overcast
Overcast
39 °F
Feels Like 34 °F
N
7
Wind Variable Wind from South

Today
High -- | Low -- °F
--% Chance of Precip.
Yesterday
High -- | Low -- °F
Precip. -- in
8:45 AM 3:28 PM
Waxing Crescent, 18% visible
Pressure 30.30 in
Visibility 2.5 miles
Clouds Overcast 400 ft
Windchill 34 °F
Dew Point 39 °F
Humidity 100%
Rainfall 0.00 in
Snow Depth Not available.
UV 0 out of 12
Pollen Not available.
Air Quality Not available.
Flu Activity Not available.
METAR EFHF 260950Z 18006KT 4000 BR OVC004 04/04 Q1026

More Conditions Fewer Conditions

Pressure 30.30 in
Visibility 2.5 miles
Clouds Overcast 400 ft
Windchill 34 °F
Dew Point 39 °F
Humidity 100%
Rainfall 0.00 in
Snow Depth Not available.
UV 0 out of 12
Pollen Not available.
Air Quality Not available.
Flu Activity Not available.
METAR EFHF 260950Z 18006KT 4000 BR OVC004 04/04 Q1026

More Conditions Fewer Conditions

10-Day Weather Forecast

Almanac

Astronomy

Nov. 26, 2014 Rise Set
Actual Time
Civil Twilight
Nautical Twilight
Astronomical Twilight
Moon
Length of Visible Light
Length of Day
Tomorrow will be .
, % of the Moon is Illuminated

Today's Extremes

Country Highs Country Lows

Community

WunderPhotos

Upload Photos

1,773,704 photos uploaded!

WunderBlogs® & News

Nearby

Air Quality

  Air Quality AQ Index Pollutant
Not available.

Snow Depth

Station Depth Elevation

Earthquake Activity

City Distance Mag. Time & Date
Minimum magnitude displayed is 2.5.

Coastal Water Temperatures

Place Temperature

Nearby Weather Stations